sensor_id;sensor_type;location;lat;lon;timestamp;pressure;altitude;pressure_sealevel;temperature;humidity
63115;BME280;49208;50.874;6.466;2024-03-07T07:02:42;101166.56;;;2.61;100.00
63115;BME280;49208;50.874;6.466;2024-03-07T07:05:07;101164.84;;;2.70;100.00
63115;BME280;49208;50.874;6.466;2024-03-07T07:07:39;101164.97;;;2.80;100.00
63115;BME280;49208;50.874;6.466;2024-03-07T07:10:07;101160.66;;;2.92;100.00
63115;BME280;49208;50.874;6.466;2024-03-07T07:12:35;101159.84;;;3.02;100.00
63115;BME280;49208;50.874;6.466;2024-03-07T07:15:01;101163.44;;;3.12;100.00
63115;BME280;49208;50.874;6.466;2024-03-07T07:17:26;101155.59;;;3.21;100.00
63115;BME280;49208;50.874;6.466;2024-03-07T07:19:54;101153.91;;;3.35;100.00
63115;BME280;49208;50.874;6.466;2024-03-07T07:22:21;101149.66;;;3.57;100.00
63115;BME280;49208;50.874;6.466;2024-03-07T07:24:46;101143.59;;;3.84;100.00
63115;BME280;49208;50.874;6.466;2024-03-07T07:27:12;101148.09;;;4.30;100.00
63115;BME280;49208;50.874;6.466;2024-03-07T07:29:37;101144.59;;;4.83;100.00
63115;BME280;49208;50.874;6.466;2024-03-07T07:32:03;101141.75;;;5.66;100.00
63115;BME280;49208;50.874;6.466;2024-03-07T07:34:28;101137.75;;;6.54;100.00
63115;BME280;49208;50.874;6.466;2024-03-07T07:36:55;101139.13;;;6.95;100.00
63115;BME280;49208;50.874;6.466;2024-03-07T07:39:21;101138.41;;;7.62;100.00
63115;BME280;49208;50.874;6.466;2024-03-07T07:41:48;101141.56;;;7.90;100.00
63115;BME280;49208;50.874;6.466;2024-03-07T07:44:15;101139.97;;;7.79;97.12
63115;BME280;49208;50.874;6.466;2024-03-07T07:46:40;101146.78;;;7.98;98.65
63115;BME280;49208;50.874;6.466;2024-03-07T07:49:06;101144.47;;;8.37;95.55
63115;BME280;49208;50.874;6.466;2024-03-07T07:51:32;101142.75;;;8.89;95.48
63115;BME280;49208;50.874;6.466;2024-03-07T07:53:57;101138.47;;;9.30;90.42
63115;BME280;49208;50.874;6.466;2024-03-07T07:56:23;101146.41;;;9.31;87.67
63115;BME280;49208;50.874;6.466;2024-03-07T07:58:49;101145.16;;;9.49;86.97
63115;BME280;49208;50.874;6.466;2024-03-07T08:01:15;101143.97;;;9.19;85.95
63115;BME280;49208;50.874;6.466;2024-03-07T08:03:43;101145.53;;;8.83;88.05
63115;BME280;49208;50.874;6.466;2024-03-07T08:06:09;101149.53;;;8.54;89.44
63115;BME280;49208;50.874;6.466;2024-03-07T08:08:34;101136.81;;;8.16;91.94
63115;BME280;49208;50.874;6.466;2024-03-07T08:11:00;101146.69;;;8.04;92.66
63115;BME280;49208;50.874;6.466;2024-03-07T08:13:26;101141.97;;;8.25;93.59
63115;BME280;49208;50.874;6.466;2024-03-07T08:15:52;101137.34;;;8.95;91.41
63115;BME280;49208;50.874;6.466;2024-03-07T08:18:19;101140.91;;;9.42;87.32
63115;BME280;49208;50.874;6.466;2024-03-07T08:20:45;101137.59;;;9.73;82.62
63115;BME280;49208;50.874;6.466;2024-03-07T08:23:11;101134.03;;;9.30;83.62
63115;BME280;49208;50.874;6.466;2024-03-07T08:25:38;101131.78;;;9.09;85.48
63115;BME280;49208;50.874;6.466;2024-03-07T08:28:08;101136.34;;;8.49;87.58
63115;BME280;49208;50.874;6.466;2024-03-07T08:30:33;101134.38;;;8.02;88.18
63115;BME280;49208;50.874;6.466;2024-03-07T08:33:00;101130.75;;;7.38;91.38
63115;BME280;49208;50.874;6.466;2024-03-07T08:35:28;101133.03;;;6.91;96.00
63115;BME280;49208;50.874;6.466;2024-03-07T08:37:54;101135.06;;;6.58;98.87
63115;BME280;49208;50.874;6.466;2024-03-07T08:40:22;101128.22;;;6.28;100.00
63115;BME280;49208;50.874;6.466;2024-03-07T08:42:50;101138.06;;;6.01;100.00
63115;BME280;49208;50.874;6.466;2024-03-07T08:45:16;101134.59;;;5.87;100.00
63115;BME280;49208;50.874;6.466;2024-03-07T08:47:45;101130.28;;;5.74;100.00
63115;BME280;49208;50.874;6.466;2024-03-07T08:50:12;101131.16;;;5.74;100.00
63115;BME280;49208;50.874;6.466;2024-03-07T08:52:39;101126.78;;;5.67;100.00
63115;BME280;49208;50.874;6.466;2024-03-07T08:55:06;101122.41;;;5.64;100.00
63115;BME280;49208;50.874;6.466;2024-03-07T08:57:34;101123.28;;;5.63;100.00
63115;BME280;49208;50.874;6.466;2024-03-07T09:00:00;101125.88;;;5.76;100.00
63115;BME280;49208;50.874;6.466;2024-03-07T09:02:34;101123.22;;;5.77;100.00
63115;BME280;49208;50.874;6.466;2024-03-07T09:05:03;101124.03;;;5.90;100.00
63115;BME280;49208;50.874;6.466;2024-03-07T09:07:28;101114.19;;;6.18;100.00
63115;BME280;49208;50.874;6.466;2024-03-07T09:09:57;101111.22;;;6.60;100.00
63115;BME280;49208;50.874;6.466;2024-03-07T09:12:22;101115.31;;;6.98;99.59
63115;BME280;49208;50.874;6.466;2024-03-07T09:14:50;101107.97;;;7.21;93.29
63115;BME280;49208;50.874;6.466;2024-03-07T09:17:17;101115.41;;;7.66;91.42
63115;BME280;49208;50.874;6.466;2024-03-07T09:19:42;101116.66;;;8.05;88.46
63115;BME280;49208;50.874;6.466;2024-03-07T09:22:08;101113.75;;;8.22;85.76
63115;BME280;49208;50.874;6.466;2024-03-07T09:24:33;101112.50;;;8.46;86.82
63115;BME280;49208;50.874;6.466;2024-03-07T09:27:00;101104.94;;;8.76;83.63
63115;BME280;49208;50.874;6.466;2024-03-07T09:29:26;101107.63;;;8.75;75.82
63115;BME280;49208;50.874;6.466;2024-03-07T09:31:53;101107.44;;;8.84;80.29
63115;BME280;49208;50.874;6.466;2024-03-07T09:34:19;101105.47;;;8.95;80.86
63115;BME280;49208;50.874;6.466;2024-03-07T09:36:48;101098.59;;;8.85;78.01
63115;BME280;49208;50.874;6.466;2024-03-07T09:39:17;101093.38;;;8.80;77.27
63115;BME280;49208;50.874;6.466;2024-03-07T09:41:44;101092.44;;;8.83;78.64
63115;BME280;49208;50.874;6.466;2024-03-07T09:44:10;101095.63;;;9.00;76.83
63115;BME280;49208;50.874;6.466;2024-03-07T09:46:38;101092.09;;;9.01;72.39
63115;BME280;49208;50.874;6.466;2024-03-07T09:49:04;101085.59;;;9.16;71.70
63115;BME280;49208;50.874;6.466;2024-03-07T09:51:31;101083.56;;;9.29;67.78
63115;BME280;49208;50.874;6.466;2024-03-07T09:53:57;101089.50;;;9.42;66.45
63115;BME280;49208;50.874;6.466;2024-03-07T09:56:27;101094.75;;;9.46;63.83
63115;BME280;49208;50.874;6.466;2024-03-07T09:58:56;101083.91;;;9.57;64.21
63115;BME280;49208;50.874;6.466;2024-03-07T10:01:25;101083.06;;;9.54;66.40
63115;BME280;49208;50.874;6.466;2024-03-07T10:03:57;101078.72;;;9.51;65.45
63115;BME280;49208;50.874;6.466;2024-03-07T10:06:23;101080.41;;;9.54;63.72
63115;BME280;49208;50.874;6.466;2024-03-07T10:08:50;101079.41;;;9.61;65.23
63115;BME280;49208;50.874;6.466;2024-03-07T10:11:15;101079.09;;;9.73;62.47
63115;BME280;49208;50.874;6.466;2024-03-07T10:13:40;101084.38;;;9.76;64.57
63115;BME280;49208;50.874;6.466;2024-03-07T10:16:06;101082.41;;;9.84;64.64
63115;BME280;49208;50.874;6.466;2024-03-07T10:18:33;101075.13;;;9.94;67.96
63115;BME280;49208;50.874;6.466;2024-03-07T10:21:06;101075.59;;;10.11;63.49
63115;BME280;49208;50.874;6.466;2024-03-07T10:23:31;101085.16;;;10.19;60.51
63115;BME280;49208;50.874;6.466;2024-03-07T10:25:59;101069.00;;;9.89;59.97
63115;BME280;49208;50.874;6.466;2024-03-07T10:28:26;101071.91;;;9.78;60.93
63115;BME280;49208;50.874;6.466;2024-03-07T10:30:51;101074.34;;;9.87;63.11
63115;BME280;49208;50.874;6.466;2024-03-07T10:33:17;101070.34;;;9.69;62.16
63115;BME280;49208;50.874;6.466;2024-03-07T10:35:46;101075.25;;;9.46;61.79
63115;BME280;49208;50.874;6.466;2024-03-07T10:38:12;101082.94;;;9.61;64.12
63115;BME280;49208;50.874;6.466;2024-03-07T10:40:38;101068.94;;;9.51;63.39
63115;BME280;49208;50.874;6.466;2024-03-07T10:43:09;101072.22;;;9.64;65.89
63115;BME280;49208;50.874;6.466;2024-03-07T10:48:10;101063.78;;;9.86;62.05
63115;BME280;49208;50.874;6.466;2024-03-07T10:50:43;101070.38;;;9.68;60.91
63115;BME280;49208;50.874;6.466;2024-03-07T10:56:29;101067.44;;;9.80;64.18
63115;BME280;49208;50.874;6.466;2024-03-07T10:59:16;101070.88;;;9.45;61.55
63115;BME280;49208;50.874;6.466;2024-03-07T11:01:49;101062.28;;;9.32;62.09
63115;BME280;49208;50.874;6.466;2024-03-07T11:04:22;101057.84;;;9.31;62.04
63115;BME280;49208;50.874;6.466;2024-03-07T11:06:48;101049.47;;;9.09;64.13
63115;BME280;49208;50.874;6.466;2024-03-07T11:09:15;101044.16;;;9.09;65.13
63115;BME280;49208;50.874;6.466;2024-03-07T11:11:48;101040.34;;;9.21;65.11
63115;BME280;49208;50.874;6.466;2024-03-07T11:14:14;101048.56;;;9.52;66.48
63115;BME280;49208;50.874;6.466;2024-03-07T11:16:41;101029.88;;;9.57;61.95
63115;BME280;49208;50.874;6.466;2024-03-07T11:19:26;101033.41;;;9.57;60.73
63115;BME280;49208;50.874;6.466;2024-03-07T11:21:54;101049.84;;;9.34;58.78
63115;BME280;49208;50.874;6.466;2024-03-07T11:24:26;101028.47;;;9.40;63.70
63115;BME280;49208;50.874;6.466;2024-03-07T11:26:55;101031.69;;;9.55;63.05
63115;BME280;49208;50.874;6.466;2024-03-07T11:29:41;101022.16;;;9.44;58.66
63115;BME280;49208;50.874;6.466;2024-03-07T11:32:13;101028.81;;;9.64;61.13
63115;BME280;49208;50.874;6.466;2024-03-07T11:34:39;101024.81;;;9.83;61.35
63115;BME280;49208;50.874;6.466;2024-03-07T11:37:08;101015.03;;;9.85;58.49
63115;BME280;49208;50.874;6.466;2024-03-07T11:42:27;101014.69;;;9.62;59.60
63115;BME280;49208;50.874;6.466;2024-03-07T11:44:54;101004.28;;;9.53;59.43
63115;BME280;49208;50.874;6.466;2024-03-07T11:47:26;101016.41;;;9.63;59.67
63115;BME280;49208;50.874;6.466;2024-03-07T11:49:55;101005.50;;;9.75;60.33
63115;BME280;49208;50.874;6.466;2024-03-07T11:52:23;100994.09;;;9.71;58.79
63115;BME280;49208;50.874;6.466;2024-03-07T11:54:48;100984.16;;;9.80;57.90
63115;BME280;49208;50.874;6.466;2024-03-07T11:57:20;100988.53;;;9.82;57.92
63115;BME280;49208;50.874;6.466;2024-03-07T11:59:51;100982.75;;;10.01;60.53
63115;BME280;49208;50.874;6.466;2024-03-07T12:02:18;100986.38;;;10.34;60.16
63115;BME280;49208;50.874;6.466;2024-03-07T12:04:46;100986.97;;;10.45;57.36
63115;BME280;49208;50.874;6.466;2024-03-07T12:07:12;100983.47;;;10.43;58.77
63115;BME280;49208;50.874;6.466;2024-03-07T12:09:38;100984.69;;;10.64;61.03
63115;BME280;49208;50.874;6.466;2024-03-07T12:12:05;100976.94;;;10.88;58.99
63115;BME280;49208;50.874;6.466;2024-03-07T12:14:30;100974.88;;;10.98;58.90
63115;BME280;49208;50.874;6.466;2024-03-07T12:16:56;100967.34;;;11.12;57.03
63115;BME280;49208;50.874;6.466;2024-03-07T12:19:23;100958.72;;;11.04;59.18
63115;BME280;49208;50.874;6.466;2024-03-07T12:21:48;100968.97;;;10.88;55.87
63115;BME280;49208;50.874;6.466;2024-03-07T12:24:14;100952.53;;;10.72;58.61
63115;BME280;49208;50.874;6.466;2024-03-07T12:26:43;100959.16;;;10.57;57.70
63115;BME280;49208;50.874;6.466;2024-03-07T12:29:12;100936.72;;;10.33;61.15
63115;BME280;49208;50.874;6.466;2024-03-07T12:31:39;100937.06;;;10.19;61.05
63115;BME280;49208;50.874;6.466;2024-03-07T12:34:04;100942.47;;;10.16;60.77
63115;BME280;49208;50.874;6.466;2024-03-07T12:36:31;100931.94;;;10.11;60.38
63115;BME280;49208;50.874;6.466;2024-03-07T12:39:01;100920.88;;;9.94;61.49
63115;BME280;49208;50.874;6.466;2024-03-07T12:41:50;100935.69;;;9.67;61.75
63115;BME280;49208;50.874;6.466;2024-03-07T12:44:18;100915.81;;;9.46;61.11
63115;BME280;49208;50.874;6.466;2024-03-07T12:46:48;100921.56;;;9.27;61.78
63115;BME280;49208;50.874;6.466;2024-03-07T12:49:14;100918.28;;;9.16;62.08
63115;BME280;49208;50.874;6.466;2024-03-07T12:51:41;100916.59;;;9.12;62.78
63115;BME280;49208;50.874;6.466;2024-03-07T12:54:07;100914.94;;;9.06;61.90
63115;BME280;49208;50.874;6.466;2024-03-07T12:56:37;100914.19;;;9.01;63.35
63115;BME280;49208;50.874;6.466;2024-03-07T12:59:05;100915.19;;;8.96;62.83
63115;BME280;49208;50.874;6.466;2024-03-07T13:01:35;100904.53;;;8.97;63.68
63115;BME280;49208;50.874;6.466;2024-03-07T13:04:03;100906.06;;;9.09;64.29
63115;BME280;49208;50.874;6.466;2024-03-07T13:06:29;100906.78;;;9.16;63.17
63115;BME280;49208;50.874;6.466;2024-03-07T13:08:57;100887.84;;;9.29;64.64
63115;BME280;49208;50.874;6.466;2024-03-07T13:11:23;100889.47;;;9.37;62.26
63115;BME280;49208;50.874;6.466;2024-03-07T13:13:48;100891.31;;;9.33;62.62
63115;BME280;49208;50.874;6.466;2024-03-07T13:16:14;100890.47;;;9.33;63.95
63115;BME280;49208;50.874;6.466;2024-03-07T13:18:40;100887.66;;;9.39;64.51
63115;BME280;49208;50.874;6.466;2024-03-07T13:21:05;100884.19;;;9.35;62.44
63115;BME280;49208;50.874;6.466;2024-03-07T13:23:32;100883.31;;;9.35;64.71
63115;BME280;49208;50.874;6.466;2024-03-07T13:26:01;100880.66;;;9.35;63.49
63115;BME280;49208;50.874;6.466;2024-03-07T13:28:26;100876.31;;;9.32;63.70
63115;BME280;49208;50.874;6.466;2024-03-07T13:30:54;100865.63;;;9.34;63.51
63115;BME280;49208;50.874;6.466;2024-03-07T13:33:20;100872.53;;;9.42;65.61
63115;BME280;49208;50.874;6.466;2024-03-07T13:35:45;100869.03;;;9.40;64.80
63115;BME280;49208;50.874;6.466;2024-03-07T13:38:11;100862.09;;;9.33;64.64
63115;BME280;49208;50.874;6.466;2024-03-07T13:40:40;100865.78;;;9.27;65.49
63115;BME280;49208;50.874;6.466;2024-03-07T13:43:07;100861.50;;;9.22;66.03
63115;BME280;49208;50.874;6.466;2024-03-07T13:45:34;100857.28;;;9.13;66.61
63115;BME280;49208;50.874;6.466;2024-03-07T13:48:10;100850.22;;;9.12;66.57
63115;BME280;49208;50.874;6.466;2024-03-07T13:50:38;100845.69;;;9.16;65.80
63115;BME280;49208;50.874;6.466;2024-03-07T13:53:06;100856.31;;;9.16;67.44
63115;BME280;49208;50.874;6.466;2024-03-07T13:55:56;100854.53;;;9.16;68.24
63115;BME280;49208;50.874;6.466;2024-03-07T14:06:34;100834.50;;;9.03;67.93
63115;BME280;49208;50.874;6.466;2024-03-07T14:09:46;100831.03;;;8.99;67.10
63115;BME280;49208;50.874;6.466;2024-03-07T14:24:25;100827.59;;;8.94;69.39
63115;BME280;49208;50.874;6.466;2024-03-07T14:27:34;100830.09;;;9.00;69.79
63115;BME280;49208;50.874;6.466;2024-03-07T14:30:18;100821.31;;;8.98;69.33
63115;BME280;49208;50.874;6.466;2024-03-07T14:32:49;100832.72;;;9.03;68.59
63115;BME280;49208;50.874;6.466;2024-03-07T14:40:40;100819.63;;;8.94;68.94
63115;BME280;49208;50.874;6.466;2024-03-07T14:43:06;100821.44;;;8.92;70.05
63115;BME280;49208;50.874;6.466;2024-03-07T14:45:39;100826.03;;;8.85;69.23
63115;BME280;49208;50.874;6.466;2024-03-07T14:48:06;100827.09;;;8.78;69.50
63115;BME280;49208;50.874;6.466;2024-03-07T14:50:35;100819.22;;;8.74;70.60
63115;BME280;49208;50.874;6.466;2024-03-07T14:53:02;100814.84;;;8.71;71.13
63115;BME280;49208;50.874;6.466;2024-03-07T14:55:28;100820.34;;;8.63;71.10
63115;BME280;49208;50.874;6.466;2024-03-07T14:57:54;100825.66;;;8.62;71.16
63115;BME280;49208;50.874;6.466;2024-03-07T15:00:19;100817.72;;;8.60;71.93
63115;BME280;49208;50.874;6.466;2024-03-07T15:02:49;100808.09;;;8.56;71.73
63115;BME280;49208;50.874;6.466;2024-03-07T15:05:15;100808.94;;;8.57;71.23
63115;BME280;49208;50.874;6.466;2024-03-07T15:07:45;100810.81;;;8.53;71.43
63115;BME280;49208;50.874;6.466;2024-03-07T15:10:17;100803.72;;;8.54;72.62
63115;BME280;49208;50.874;6.466;2024-03-07T15:12:47;100809.06;;;8.52;70.66
63115;BME280;49208;50.874;6.466;2024-03-07T15:15:13;100800.38;;;8.45;70.26
63115;BME280;49208;50.874;6.466;2024-03-07T15:17:42;100795.06;;;8.45;70.52
63115;BME280;49208;50.874;6.466;2024-03-07T15:20:09;100792.38;;;8.47;70.65
63115;BME280;49208;50.874;6.466;2024-03-07T15:22:41;100794.09;;;8.49;71.20
63115;BME280;49208;50.874;6.466;2024-03-07T15:25:12;100783.38;;;8.53;69.74
63115;BME280;49208;50.874;6.466;2024-03-07T15:27:40;100792.31;;;8.48;69.05
63115;BME280;49208;50.874;6.466;2024-03-07T15:30:05;100791.47;;;8.48;69.61
63115;BME280;49208;50.874;6.466;2024-03-07T15:32:36;100782.59;;;8.49;69.65
63115;BME280;49208;50.874;6.466;2024-03-07T15:35:02;100784.47;;;8.44;70.19
63115;BME280;49208;50.874;6.466;2024-03-07T15:37:29;100774.78;;;8.43;71.08
63115;BME280;49208;50.874;6.466;2024-03-07T15:39:54;100775.66;;;8.43;70.11
63115;BME280;49208;50.874;6.466;2024-03-07T15:42:19;100773.84;;;8.44;69.15
63115;BME280;49208;50.874;6.466;2024-03-07T15:44:45;100772.22;;;8.37;69.84
63115;BME280;49208;50.874;6.466;2024-03-07T15:47:11;100772.25;;;8.35;68.98
63115;BME280;49208;50.874;6.466;2024-03-07T15:49:38;100768.03;;;8.26;70.08
63115;BME280;49208;50.874;6.466;2024-03-07T15:52:05;100770.72;;;8.23;72.65
63115;BME280;49208;50.874;6.466;2024-03-07T15:54:31;100760.22;;;8.19;69.40
63115;BME280;49208;50.874;6.466;2024-03-07T15:56:56;100754.09;;;8.15;69.51
63115;BME280;49208;50.874;6.466;2024-03-07T15:59:23;100758.59;;;8.12;70.61
63115;BME280;49208;50.874;6.466;2024-03-07T16:01:48;100761.31;;;8.08;71.90
63115;BME280;49208;50.874;6.466;2024-03-07T16:04:13;100754.28;;;8.06;72.22
63115;BME280;49208;50.874;6.466;2024-03-07T16:06:42;100749.03;;;8.03;73.37
63115;BME280;49208;50.874;6.466;2024-03-07T16:09:08;100746.44;;;8.01;74.07
63115;BME280;49208;50.874;6.466;2024-03-07T16:11:33;100744.69;;;8.00;74.60
63115;BME280;49208;50.874;6.466;2024-03-07T16:13:59;100736.72;;;8.00;75.06
63115;BME280;49208;50.874;6.466;2024-03-07T16:16:24;100746.44;;;8.01;74.47
63115;BME280;49208;50.874;6.466;2024-03-07T16:18:50;100747.44;;;7.94;74.29
63115;BME280;49208;50.874;6.466;2024-03-07T16:21:17;100746.63;;;7.90;73.78
63115;BME280;49208;50.874;6.466;2024-03-07T16:23:42;100737.91;;;7.85;74.91
63115;BME280;49208;50.874;6.466;2024-03-07T16:26:08;100734.44;;;7.82;75.26
63115;BME280;49208;50.874;6.466;2024-03-07T16:28:33;100736.25;;;7.80;76.10
63115;BME280;49208;50.874;6.466;2024-03-07T16:30:58;100729.25;;;7.76;76.47
63115;BME280;49208;50.874;6.466;2024-03-07T16:33:26;100722.28;;;7.72;77.62
63115;BME280;49208;50.874;6.466;2024-03-07T16:35:53;100734.66;;;7.69;77.23
63115;BME280;49208;50.874;6.466;2024-03-07T16:38:18;100727.69;;;7.65;76.85
63115;BME280;49208;50.874;6.466;2024-03-07T16:40:47;100723.31;;;7.63;76.27
63115;BME280;49208;50.874;6.466;2024-03-07T16:43:14;100725.13;;;7.61;76.46
63115;BME280;49208;50.874;6.466;2024-03-07T16:45:40;100733.16;;;7.58;76.68
63115;BME280;49208;50.874;6.466;2024-03-07T16:48:06;100721.75;;;7.53;76.55
63115;BME280;49208;50.874;6.466;2024-03-07T16:50:37;100727.13;;;7.49;77.03
63115;BME280;49208;50.874;6.466;2024-03-07T16:53:06;100731.56;;;7.47;78.64
63115;BME280;49208;50.874;6.466;2024-03-07T16:55:33;100729.88;;;7.43;76.68
63115;BME280;49208;50.874;6.466;2024-03-07T16:58:00;100732.53;;;7.43;77.47
63115;BME280;49208;50.874;6.466;2024-03-07T17:00:25;100729.97;;;7.39;77.57
63115;BME280;49208;50.874;6.466;2024-03-07T17:03:04;100734.41;;;7.37;77.82
63115;BME280;49208;50.874;6.466;2024-03-07T17:05:33;100733.59;;;7.33;77.82
63115;BME280;49208;50.874;6.466;2024-03-07T17:07:58;100730.97;;;7.32;76.94
63115;BME280;49208;50.874;6.466;2024-03-07T17:10:30;100735.41;;;7.29;77.12
63115;BME280;49208;50.874;6.466;2024-03-07T17:12:57;100731.03;;;7.28;77.20
63115;BME280;49208;50.874;6.466;2024-03-07T17:15:23;100729.28;;;7.26;77.15
63115;BME280;49208;50.874;6.466;2024-03-07T17:17:52;100727.56;;;7.23;77.43
63115;BME280;49208;50.874;6.466;2024-03-07T17:20:23;100728.53;;;7.19;78.39
63115;BME280;49208;50.874;6.466;2024-03-07T17:22:52;100724.16;;;7.18;78.02
63115;BME280;49208;50.874;6.466;2024-03-07T17:25:19;100726.81;;;7.17;78.14
63115;BME280;49208;50.874;6.466;2024-03-07T17:27:48;100725.13;;;7.13;78.07
63115;BME280;49208;50.874;6.466;2024-03-07T17:30:19;100725.13;;;7.13;78.40
63115;BME280;49208;50.874;6.466;2024-03-07T17:32:45;100724.25;;;7.11;78.15
63115;BME280;49208;50.874;6.466;2024-03-07T17:35:12;100723.41;;;7.08;77.67
63115;BME280;49208;50.874;6.466;2024-03-07T17:37:40;100725.22;;;7.06;78.76
63115;BME280;49208;50.874;6.466;2024-03-07T17:40:08;100727.88;;;7.06;78.86
63115;BME280;49208;50.874;6.466;2024-03-07T17:42:53;100723.50;;;7.04;77.73
63115;BME280;49208;50.874;6.466;2024-03-07T17:45:26;100735.88;;;7.02;78.95
63115;BME280;49208;50.874;6.466;2024-03-07T17:47:59;100736.78;;;7.01;77.88
63115;BME280;49208;50.874;6.466;2024-03-07T17:52:53;100730.63;;;6.99;79.02
63115;BME280;49208;50.874;6.466;2024-03-07T17:55:19;100730.63;;;6.99;78.83
63115;BME280;49208;50.874;6.466;2024-03-07T17:57:49;100723.59;;;6.98;79.56
63115;BME280;49208;50.874;6.466;2024-03-07T18:00:15;100734.22;;;6.95;79.20
63115;BME280;49208;50.874;6.466;2024-03-07T18:02:44;100731.56;;;6.95;79.83
63115;BME280;49208;50.874;6.466;2024-03-07T18:05:13;100734.28;;;6.92;78.45
63115;BME280;49208;50.874;6.466;2024-03-07T18:07:41;100730.78;;;6.90;78.95
63115;BME280;49208;50.874;6.466;2024-03-07T18:10:07;100726.38;;;6.90;78.99
63115;BME280;49208;50.874;6.466;2024-03-07T18:12:45;100722.88;;;6.88;78.31
63115;BME280;49208;50.874;6.466;2024-03-07T18:15:14;100725.50;;;6.90;77.73
63115;BME280;49208;50.874;6.466;2024-03-07T18:17:40;100729.94;;;6.87;78.46
63115;BME280;49208;50.874;6.466;2024-03-07T18:20:05;100720.22;;;6.88;77.61
63115;BME280;49208;50.874;6.466;2024-03-07T18:22:36;100723.78;;;6.87;76.82
63115;BME280;49208;50.874;6.466;2024-03-07T18:25:02;100723.78;;;6.85;77.18
63115;BME280;49208;50.874;6.466;2024-03-07T18:27:27;100720.28;;;6.85;77.94
63115;BME280;49208;50.874;6.466;2024-03-07T18:29:54;100718.53;;;6.82;77.61
63115;BME280;49208;50.874;6.466;2024-03-07T18:32:19;100712.41;;;6.80;78.42
63115;BME280;49208;50.874;6.466;2024-03-07T18:34:45;100720.31;;;6.82;76.87
63115;BME280;49208;50.874;6.466;2024-03-07T18:37:12;100713.28;;;6.81;76.83
63115;BME280;49208;50.874;6.466;2024-03-07T18:39:38;100719.47;;;6.80;77.96
63115;BME280;49208;50.874;6.466;2024-03-07T18:42:11;100708.91;;;6.78;77.87
63115;BME280;49208;50.874;6.466;2024-03-07T18:44:37;100715.97;;;6.78;77.17
63115;BME280;49208;50.874;6.466;2024-03-07T18:47:02;100708.09;;;6.75;77.70
63115;BME280;49208;50.874;6.466;2024-03-07T18:49:33;100707.25;;;6.73;77.62
63115;BME280;49208;50.874;6.466;2024-03-07T18:51:59;100704.59;;;6.73;76.89
63115;BME280;49208;50.874;6.466;2024-03-07T18:54:25;100696.69;;;6.70;77.03
63115;BME280;49208;50.874;6.466;2024-03-07T18:56:51;100702.91;;;6.68;77.42
63115;BME280;49208;50.874;6.466;2024-03-07T18:59:18;100701.16;;;6.66;77.34
63115;BME280;49208;50.874;6.466;2024-03-07T19:01:45;100700.28;;;6.67;77.52
63115;BME280;49208;50.874;6.466;2024-03-07T19:04:10;100700.28;;;6.67;75.77
63115;BME280;49208;50.874;6.466;2024-03-07T19:06:37;100702.06;;;6.65;76.63
63115;BME280;49208;50.874;6.466;2024-03-07T19:09:03;100702.94;;;6.65;74.96
63115;BME280;49208;50.874;6.466;2024-03-07T19:11:37;100698.56;;;6.64;74.99
63115;BME280;49208;50.874;6.466;2024-03-07T19:14:03;100699.41;;;6.66;74.51
63115;BME280;49208;50.874;6.466;2024-03-07T19:16:28;100694.16;;;6.63;74.07
63115;BME280;49208;50.874;6.466;2024-03-07T19:18:54;100695.06;;;6.61;73.98
63115;BME280;49208;50.874;6.466;2024-03-07T19:21:21;100694.22;;;6.60;73.27
63115;BME280;49208;50.874;6.466;2024-03-07T19:23:46;100692.44;;;6.61;72.51
63115;BME280;49208;50.874;6.466;2024-03-07T19:26:11;100692.44;;;6.59;73.55
63115;BME280;49208;50.874;6.466;2024-03-07T19:28:37;100687.22;;;6.56;74.23
63115;BME280;49208;50.874;6.466;2024-03-07T19:31:03;100687.25;;;6.53;72.86
63115;BME280;49208;50.874;6.466;2024-03-07T19:33:29;100681.94;;;6.55;73.50
63115;BME280;49208;50.874;6.466;2024-03-07T19:35:56;100687.25;;;6.53;73.55
63115;BME280;49208;50.874;6.466;2024-03-07T19:38:27;100682.00;;;6.52;73.37
63115;BME280;49208;50.874;6.466;2024-03-07T19:40:53;100684.59;;;6.53;71.44
63115;BME280;49208;50.874;6.466;2024-03-07T19:43:18;100688.09;;;6.57;70.91
63115;BME280;49208;50.874;6.466;2024-03-07T19:45:50;100680.16;;;6.55;71.83
63115;BME280;49208;50.874;6.466;2024-03-07T19:48:16;100685.41;;;6.58;70.08
63115;BME280;49208;50.874;6.466;2024-03-07T19:50:43;100679.28;;;6.55;71.76
63115;BME280;49208;50.874;6.466;2024-03-07T19:53:10;100675.81;;;6.53;70.68
63115;BME280;49208;50.874;6.466;2024-03-07T19:55:45;100672.28;;;6.54;71.10
63115;BME280;49208;50.874;6.466;2024-03-07T19:58:11;100670.53;;;6.51;71.33
63115;BME280;49208;50.874;6.466;2024-03-07T20:00:38;100677.66;;;6.47;70.33
63115;BME280;49208;50.874;6.466;2024-03-07T20:03:05;100669.69;;;6.49;70.40
63115;BME280;49208;50.874;6.466;2024-03-07T20:05:34;100674.09;;;6.48;69.93
63115;BME280;49208;50.874;6.466;2024-03-07T20:08:00;100676.81;;;6.45;70.53
63115;BME280;49208;50.874;6.466;2024-03-07T20:10:26;100674.16;;;6.45;71.10
63115;BME280;49208;50.874;6.466;2024-03-07T20:12:54;100667.97;;;6.45;71.68
63115;BME280;49208;50.874;6.466;2024-03-07T20:15:20;100673.34;;;6.40;70.57
63115;BME280;49208;50.874;6.466;2024-03-07T20:17:46;100674.25;;;6.38;71.63
63115;BME280;49208;50.874;6.466;2024-03-07T20:20:13;100662.81;;;6.37;70.96
63115;BME280;49208;50.874;6.466;2024-03-07T20:22:49;100667.22;;;6.37;70.90
63115;BME280;49208;50.874;6.466;2024-03-07T20:25:19;100660.19;;;6.36;70.23
63115;BME280;49208;50.874;6.466;2024-03-07T20:27:46;100651.41;;;6.34;69.74
63115;BME280;49208;50.874;6.466;2024-03-07T20:30:14;100658.50;;;6.32;69.18
63115;BME280;49208;50.874;6.466;2024-03-07T20:32:48;100657.63;;;6.30;70.79
63115;BME280;49208;50.874;6.466;2024-03-07T20:35:18;100651.53;;;6.24;70.66
63115;BME280;49208;50.874;6.466;2024-03-07T20:37:48;100644.59;;;6.17;71.31
63115;BME280;49208;50.874;6.466;2024-03-07T20:40:17;100648.19;;;6.12;71.89